アテネ の空港の天気 - METARとTAF

アテネ国際空港 ( LGAV / ATH ) - ギリシャ アテネ
飛行場実況気象(Metar)
観測時間04/30 17:20 EEST (04/30 14:20 UTC)
風向・風速北北東 9m/s
視程10km以上
天気現象
少しの雲 雲底高度 610m
気温20℃
湿度60%
気圧1008hPa
METARLGAV 301420Z 03018KT 9999 FEW020 20/12 Q1008 NOSIG
過去の天気等 Google飛行場航空写真 Wunderground天気予報

過去48時間のMETAR

飛行場予報(TAF)
発表時間: 4/30 14:00 EEST (4/30 11:00 UTC)
予報対象時間: 30日15時 EEST ~ 1日15時 EEST
風向・風速北東 7m/s
視程10km以上
少しの雲 雲底高度 610m
TAF LGAV 301100Z 3012/0112 04014KT 9999 FEW020